Time;durP1;ratioP1;P1;durP2;ratioP2;P2;SDS_P1;SDS_P2;PMS_P1;PMS_P2;Temp;Humidity;BMP_temperature;BMP_pressure;BME280_temperature;BME280_humidity;BME280_pressure;Samples;Min_cycle;Max_cycle;Signal;HPM_P1;HPM_P2
2023/08/25 00:01:27;;;;;;;13.93;8.65;;;;;;;;;;4987036;28;20065;-86
2023/08/25 00:03:59;;;;;;;13.45;8.18;;;;;;;;;;4986569;28;20366;-84
2023/08/25 00:06:28;;;;;;;11.98;7.47;;;;;;;;;;5005446;28;20050;-84
2023/08/25 00:08:59;;;;;;;21.38;8.50;;;;;;;;;;4988718;28;20101;-85
2023/08/25 00:11:28;;;;;;;14.40;8.18;;;;;;;;;;4988738;28;20069;-85
2023/08/25 00:13:57;;;;;;;19.80;7.88;;;;;;;;;;4986415;28;20501;-85
2023/08/25 00:16:31;;;;;;;12.75;7.43;;;;;;;;;;4987136;28;20140;-86
2023/08/25 00:19:14;;;;;;;12.00;7.50;;;;;;;;;;4987171;28;20422;-86
2023/08/25 00:21:42;;;;;;;14.23;8.77;;;;;;;;;;4985772;28;20054;-86
2023/08/25 00:24:21;;;;;;;14.65;7.28;;;;;;;;;;4988420;28;20117;-86
2023/08/25 00:26:52;;;;;;;17.25;8.98;;;;;;;;;;5003595;28;20067;-87
2023/08/25 00:29:23;;;;;;;13.23;8.63;;;;;;;;;;4986335;28;20128;-86
2023/08/25 00:31:52;;;;;;;19.98;8.30;;;;;;;;;;4995904;28;20435;-86
2023/08/25 00:34:20;;;;;;;11.52;7.95;;;;;;;;;;4987514;28;20050;-86
2023/08/25 00:36:50;;;;;;;13.75;8.90;;;;;;;;;;4981687;28;20050;-86
2023/08/25 00:39:37;;;;;;;16.40;7.95;;;;;;;;;;4986477;28;20330;-86
2023/08/25 00:42:08;;;;;;;16.45;8.05;;;;;;;;;;4986768;28;20060;-85
2023/08/25 00:44:38;;;;;;;12.95;8.60;;;;;;;;;;5005544;28;20058;-85
2023/08/25 00:47:09;;;;;;;15.05;9.10;;;;;;;;;;4987182;28;20073;-86
2023/08/25 00:49:39;;;;;;;10.55;7.80;;;;;;;;;;4988340;28;20070;-86
2023/08/25 00:52:08;;;;;;;13.88;8.05;;;;;;;;;;4987627;28;20053;-86
2023/08/25 00:54:37;;;;;;;13.82;8.13;;;;;;;;;;5004510;28;20077;-86
2023/08/25 00:57:11;;;;;;;15.15;9.02;;;;;;;;;;4986485;28;20050;-86
2023/08/25 00:59:45;;;;;;;10.80;8.65;;;;;;;;;;5002983;28;20150;-85
2023/08/25 01:02:23;;;;;;;12.77;9.75;;;;;;;;;;4987722;28;20105;-85
2023/08/25 01:04:56;;;;;;;16.98;10.02;;;;;;;;;;4990162;28;20065;-86
2023/08/25 01:07:37;;;;;;;15.73;8.55;;;;;;;;;;4987633;28;20050;-86
2023/08/25 01:10:08;;;;;;;16.35;10.07;;;;;;;;;;4987045;28;20133;-85
2023/08/25 01:12:45;;;;;;;14.60;9.18;;;;;;;;;;4993076;28;20054;-86
2023/08/25 01:15:22;;;;;;;13.93;9.07;;;;;;;;;;4989764;28;20038;-85
2023/08/25 01:17:54;;;;;;;14.27;8.77;;;;;;;;;;4987438;28;20065;-85
2023/08/25 01:20:22;;;;;;;20.27;9.52;;;;;;;;;;4988495;28;20132;-85
2023/08/25 01:23:09;;;;;;;15.35;9.50;;;;;;;;;;4993901;28;20065;-86
2023/08/25 01:25:37;;;;;;;18.83;10.05;;;;;;;;;;5026444;28;20073;-86
2023/08/25 01:28:08;;;;;;;16.50;9.57;;;;;;;;;;5012232;28;20053;-86
2023/08/25 01:30:38;;;;;;;15.77;9.40;;;;;;;;;;5012402;28;20073;-85
2023/08/25 01:33:10;;;;;;;12.38;8.05;;;;;;;;;;5027860;28;20053;-85
2023/08/25 01:35:46;;;;;;;13.30;8.63;;;;;;;;;;5030641;28;20050;-85
2023/08/25 01:38:25;;;;;;;14.25;8.63;;;;;;;;;;5031208;28;20038;-85
2023/08/25 01:41:02;;;;;;;19.05;9.57;;;;;;;;;;5012891;28;20049;-86
2023/08/25 01:43:42;;;;;;;14.98;9.07;;;;;;;;;;5013195;28;20144;-85
2023/08/25 01:46:11;;;;;;;18.58;10.63;;;;;;;;;;5011204;28;20068;-86
2023/08/25 01:49:01;;;;;;;20.80;10.40;;;;;;;;;;5010692;28;20073;-86
2023/08/25 01:51:31;;;;;;;19.02;9.63;;;;;;;;;;5028430;28;20066;-85
2023/08/25 01:53:59;;;;;;;15.40;10.40;;;;;;;;;;5009460;28;20050;-86
2023/08/25 01:56:44;;;;;;;19.88;10.43;;;;;;;;;;5014965;28;20069;-86
2023/08/25 01:59:27;;;;;;;21.92;11.27;;;;;;;;;;5011783;28;20421;-86
2023/08/25 02:01:59;;;;;;;15.85;10.95;;;;;;;;;;5011080;28;20054;-86
2023/08/25 02:04:27;;;;;;;22.95;9.60;;;;;;;;;;5009732;28;20050;-85
2023/08/25 02:06:54;;;;;;;14.23;9.43;;;;;;;;;;5011243;28;20117;-88
2023/08/25 02:09:23;;;;;;;17.05;10.35;;;;;;;;;;5009770;28;20244;-88
2023/08/25 02:11:53;;;;;;;14.50;9.40;;;;;;;;;;5012487;28;20054;-89
2023/08/25 02:14:23;;;;;;;22.45;10.15;;;;;;;;;;5011110;28;20061;-89
2023/08/25 02:16:51;;;;;;;17.95;9.95;;;;;;;;;;5010879;28;20060;-88
2023/08/25 02:19:21;;;;;;;23.75;11.07;;;;;;;;;;5028634;28;20149;-89
2023/08/25 02:21:48;;;;;;;18.40;11.55;;;;;;;;;;5025506;28;20050;-88
2023/08/25 02:24:31;;;;;;;16.23;10.82;;;;;;;;;;4999612;28;20062;-88
2023/08/25 02:26:58;;;;;;;17.10;10.93;;;;;;;;;;5009460;28;20141;-88
2023/08/25 02:29:39;;;;;;;19.67;11.30;;;;;;;;;;4985981;28;20042;-88
2023/08/25 02:32:19;;;;;;;23.45;13.30;;;;;;;;;;4955066;28;20059;-89
2023/08/25 02:34:49;;;;;;;20.33;11.45;;;;;;;;;;4990858;28;20212;-89
2023/08/25 02:37:21;;;;;;;23.83;13.35;;;;;;;;;;4991322;28;20078;-89
2023/08/25 02:39:49;;;;;;;17.20;11.57;;;;;;;;;;4988025;28;20077;-88
2023/08/25 02:42:19;;;;;;;23.20;12.00;;;;;;;;;;4996355;28;20049;-89
2023/08/25 02:48:10;;;;;;;17.65;11.30;;;;;;;;;;5013716;28;20064;-89
2023/08/25 02:50:37;;;;;;;21.27;11.63;;;;;;;;;;4998328;28;20105;-88
2023/08/25 02:53:10;;;;;;;20.92;14.23;;;;;;;;;;5013061;28;20249;-89
2023/08/25 02:55:38;;;;;;;18.88;12.02;;;;;;;;;;5014841;28;20065;-88
2023/08/25 02:58:06;;;;;;;19.48;13.20;;;;;;;;;;5013789;28;20042;-89
2023/08/25 03:03:58;;;;;;;19.83;13.98;;;;;;;;;;5014698;28;20065;-88
2023/08/25 03:06:26;;;;;;;22.58;14.18;;;;;;;;;;4999693;28;20046;-88
2023/08/25 03:08:53;;;;;;;27.02;15.77;;;;;;;;;;4999047;28;20070;-86
2023/08/25 03:11:24;;;;;;;23.25;13.93;;;;;;;;;;5001282;28;20070;-88
2023/08/25 03:13:53;;;;;;;38.35;19.25;;;;;;;;;;5016211;28;20065;-88
2023/08/25 03:16:22;;;;;;;28.67;15.65;;;;;;;;;;5017547;28;20038;-88
2023/08/25 03:18:50;;;;;;;30.88;18.05;;;;;;;;;;5016513;28;20042;-88
2023/08/25 03:21:20;;;;;;;31.00;17.08;;;;;;;;;;5016809;28;20058;-88
2023/08/25 03:23:48;;;;;;;29.48;16.38;;;;;;;;;;5017463;28;20077;-89
2023/08/25 03:26:21;;;;;;;26.75;15.15;;;;;;;;;;5000519;28;20258;-89
2023/08/25 03:29:08;;;;;;;27.33;16.60;;;;;;;;;;5006054;28;20037;-86
2023/08/25 03:34:36;;;;;;;26.93;18.00;;;;;;;;;;2956208;26;20034;-87
2023/08/25 03:37:19;;;;;;;29.50;17.55;;;;;;;;;;5005927;28;20026;-87
2023/08/25 03:40:04;;;;;;;32.35;19.17;;;;;;;;;;5330957;23;20127;-88
2023/08/25 03:45:24;;;;;;;27.85;18.77;;;;;;;;;;5117467;23;20114;-88
2023/08/25 03:53:43;;;;;;;33.25;20.00;;;;;;;;;;1186278;26;20030;-88
2023/08/25 03:56:30;;;;;;;36.17;21.20;;;;;;;;;;5243260;22;20106;-87
2023/08/25 04:04:36;;;;;;;34.90;22.85;;;;;;;;;;6079737;23;20124;-84
2023/08/25 04:07:48;;;;;;;40.85;23.65;;;;;;;;;;5006583;28;20049;-86
2023/08/25 04:10:27;;;;;;;38.33;23.73;;;;;;;;;;5004552;28;20045;-88
2023/08/25 04:13:08;;;;;;;38.17;23.33;;;;;;;;;;5005510;28;20043;-88
2023/08/25 04:16:02;;;;;;;32.20;21.77;;;;;;;;;;5018913;28;20093;-88
2023/08/25 04:18:50;;;;;;;33.42;21.60;;;;;;;;;;5346255;23;20048;-86
2023/08/25 04:47:32;;;;;;;46.85;26.25;;;;;;;;;;5456604;23;20034;-89
2023/08/25 04:50:15;;;;;;;48.80;28.20;;;;;;;;;;4998318;28;20034;-88
2023/08/25 05:00:05;;;;;;;40.63;25.48;;;;;;;;;;5018968;28;20037;-88
2023/08/25 05:03:18;;;;;;;44.45;26.13;;;;;;;;;;5276018;23;20217;-90
2023/08/25 05:06:03;;;;;;;50.03;26.20;;;;;;;;;;5003877;28;20050;-89
2023/08/25 05:08:56;;;;;;;45.67;24.50;;;;;;;;;;5076314;23;20029;-88
2023/08/25 05:15:17;;;;;;;49.67;26.73;;;;;;;;;;4999791;28;20029;-87
2023/08/25 05:18:34;;;;;;;40.55;24.77;;;;;;;;;;4979170;28;20052;-88
2023/08/25 05:25:17;;;;;;;;;;;;;;;;;;;;;
2023/08/25 05:28:43;;;;;;;28.60;19.17;;;;;;;;;;4944820;28;20078;-87
2023/08/25 06:27:06;;;;;;;;;;;;;;;;;;;;;
2023/08/25 06:38:39;;;;;;;31.80;20.90;;;;;;;;;;5122566;22;20044;-88
2023/08/25 06:41:36;;;;;;;34.60;20.50;;;;;;;;;;5465930;23;20042;-89
2023/08/25 06:49:32;;;;;;;37.33;22.23;;;;;;;;;;5854925;23;20055;-88
2023/08/25 06:57:31;;;;;;;35.97;21.23;;;;;;;;;;937586;26;20304;-88
2023/08/25 07:00:21;;;;;;;32.78;20.38;;;;;;;;;;5073775;23;20058;-90
2023/08/25 07:03:43;;;;;;;33.10;21.48;;;;;;;;;;4971259;28;20027;-87
2023/08/25 08:32:53;;;;;;;21.75;13.73;;;;;;;;;;4619759;22;20469;-90
2023/08/25 08:35:48;;;;;;;19.73;14.32;;;;;;;;;;5002641;28;20046;-90
2023/08/25 08:39:04;;;;;;;23.15;15.65;;;;;;;;;;5002921;28;20066;-88
2023/08/25 08:54:57;;;;;;;20.15;13.00;;;;;;;;;;6072921;22;20047;-91
2023/08/25 09:01:35;;;;;;;25.02;15.30;;;;;;;;;;5000884;28;20033;-90
2023/08/25 10:16:06;;;;;;;18.57;12.80;;;;;;;;;;5573123;22;20478;-88
2023/08/25 10:57:47;;;;;;;33.10;21.03;;;;;;;;;;5945315;23;19918;-89
2023/08/25 11:00:45;;;;;;;26.88;19.05;;;;;;;;;;4977332;28;20077;-89
2023/08/25 13:11:07;;;;;;;25.03;16.00;;;;;;;;;;2651490;22;20042;-90
2023/08/25 13:13:49;;;;;;;19.10;12.07;;;;;;;;;;5001801;28;20421;-89
2023/08/25 13:16:21;;;;;;;19.52;11.43;;;;;;;;;;5000635;28;20046;-89
2023/08/25 13:19:09;;;;;;;14.10;8.55;;;;;;;;;;5012291;28;20065;-90
2023/08/25 13:21:51;;;;;;;13.20;7.88;;;;;;;;;;5097773;23;20042;-88
2023/08/25 13:24:32;;;;;;;9.25;6.28;;;;;;;;;;5020370;28;20054;-88
2023/08/25 13:43:32;;;;;;;13.43;6.20;;;;;;;;;;5844936;22;20087;-90
2023/08/25 13:46:26;;;;;;;9.57;6.57;;;;;;;;;;5007951;28;20094;-89
2023/08/25 13:52:36;;;;;;;16.60;8.32;;;;;;;;;;5030338;22;20054;-87
2023/08/25 14:21:26;;;;;;;5.87;4.17;;;;;;;;;;5120083;22;20244;-90
2023/08/25 14:26:51;;;;;;;7.25;4.13;;;;;;;;;;5014147;28;20439;-89
2023/08/25 14:32:10;;;;;;;6.85;4.20;;;;;;;;;;5718892;23;20054;-87
2023/08/25 15:04:48;;;;;;;6.30;2.92;;;;;;;;;;4086570;22;20163;-90
2023/08/25 15:07:53;;;;;;;6.47;3.17;;;;;;;;;;5166534;22;20053;-90
2023/08/25 15:18:28;;;;;;;10.55;3.30;;;;;;;;;;5696966;22;20045;-88
2023/08/25 15:38:28;;;;;;;7.07;2.90;;;;;;;;;;5085706;23;20147;-89
2023/08/25 15:41:19;;;;;;;3.97;2.85;;;;;;;;;;5037626;28;20049;-86
2023/08/25 15:44:24;;;;;;;8.35;2.90;;;;;;;;;;5035654;28;20036;-87
2023/08/25 16:46:12;;;;;;;4.00;1.95;;;;;;;;;;5416589;22;20038;-89
2023/08/25 16:49:05;;;;;;;5.32;2.10;;;;;;;;;;5036466;28;20033;-89
2023/08/25 16:55:20;;;;;;;3.63;1.70;;;;;;;;;;5266524;22;20402;-87
2023/08/25 16:58:28;;;;;;;4.93;2.17;;;;;;;;;;4997127;28;20042;-87
2023/08/25 17:01:15;;;;;;;5.38;1.70;;;;;;;;;;5000400;28;20067;-86
2023/08/25 17:04:39;;;;;;;;;;;;;;;;;;;;;
2023/08/25 17:10:44;;;;;;;3.50;1.80;;;;;;;;;;5015022;28;20048;-87
2023/08/25 17:13:49;;;;;;;6.65;2.28;;;;;;;;;;5168543;23;20073;-86
2023/08/25 17:37:42;;;;;;;7.80;1.60;;;;;;;;;;5249245;23;20054;-87
2023/08/25 17:46:07;;;;;;;3.90;2.33;;;;;;;;;;4739864;23;20042;-89
2023/08/25 18:42:19;;;;;;;6.75;4.07;;;;;;;;;;5346657;22;20211;-88
2023/08/25 18:45:45;;;;;;;4.78;3.97;;;;;;;;;;4996298;28;20038;-89
2023/08/25 18:48:25;;;;;;;6.60;4.63;;;;;;;;;;4978827;28;20042;-88
2023/08/25 19:11:43;;;;;;;10.73;7.33;;;;;;;;;;5164093;22;20038;-88
2023/08/25 19:17:06;;;;;;;9.63;6.43;;;;;;;;;;1162120;26;20046;-89
2023/08/25 19:19:52;;;;;;;12.48;9.27;;;;;;;;;;4992816;28;20515;-88
2023/08/25 19:22:36;;;;;;;11.57;8.57;;;;;;;;;;4998690;28;20053;-87
2023/08/25 19:25:08;;;;;;;12.07;8.95;;;;;;;;;;4999673;28;20042;-89
2023/08/25 19:27:37;;;;;;;9.80;8.00;;;;;;;;;;5001449;28;20113;-89
2023/08/25 19:30:16;;;;;;;10.35;7.53;;;;;;;;;;4988084;28;20060;-89
2023/08/25 19:32:50;;;;;;;9.45;8.25;;;;;;;;;;5002281;28;20054;-88
2023/08/25 19:35:23;;;;;;;13.38;8.20;;;;;;;;;;4985265;28;20131;-88
2023/08/25 19:38:03;;;;;;;10.43;8.13;;;;;;;;;;4993894;28;20046;-89
2023/08/25 19:40:45;;;;;;;13.65;10.40;;;;;;;;;;4982752;28;20086;-90
2023/08/25 19:43:20;;;;;;;11.10;9.88;;;;;;;;;;5002908;28;20074;-89
2023/08/25 19:45:52;;;;;;;14.18;11.10;;;;;;;;;;4993821;28;20042;-89
2023/08/25 19:48:20;;;;;;;13.00;11.70;;;;;;;;;;4987637;28;20054;-88
2023/08/25 19:51:04;;;;;;;13.20;11.50;;;;;;;;;;4987605;28;20054;-89
2023/08/25 19:53:37;;;;;;;16.05;13.70;;;;;;;;;;4988561;28;20073;-89
2023/08/25 19:56:07;;;;;;;13.55;12.10;;;;;;;;;;4987706;28;20050;-89
2023/08/25 19:58:48;;;;;;;13.43;10.18;;;;;;;;;;4989776;28;20146;-88
2023/08/25 20:01:27;;;;;;;12.15;10.63;;;;;;;;;;4991415;28;20046;-88
2023/08/25 20:04:39;;;;;;;13.63;12.23;;;;;;;;;;5017792;28;20048;-87
2023/08/25 20:07:46;;;;;;;15.18;13.00;;;;;;;;;;5013397;28;20181;-87
2023/08/25 20:11:03;;;;;;;15.80;11.80;;;;;;;;;;5017241;28;20030;-86
2023/08/25 20:13:59;;;;;;;;;;;;;;;;;;;;;
2023/08/25 20:17:23;;;;;;;;;;;;;;;;;;;;;
2023/08/25 20:20:23;;;;;;;15.30;10.25;;;;;;;;;;5017467;28;20034;-86
2023/08/25 20:22:55;;;;;;;13.32;11.88;;;;;;;;;;4992247;28;20163;-88
2023/08/25 20:26:03;;;;;;;12.50;11.15;;;;;;;;;;5006399;28;20078;-88
2023/08/25 20:28:31;;;;;;;13.43;10.95;;;;;;;;;;4991425;28;20069;-88
2023/08/25 20:31:06;;;;;;;12.07;10.00;;;;;;;;;;4988442;28;20054;-87
2023/08/25 20:33:36;;;;;;;14.38;11.80;;;;;;;;;;5000760;28;20322;-88
2023/08/25 20:36:24;;;;;;;13.38;11.98;;;;;;;;;;4986244;28;20057;-89
2023/08/25 20:38:55;;;;;;;16.05;13.30;;;;;;;;;;4985953;28;20203;-89
2023/08/25 20:41:30;;;;;;;13.60;12.10;;;;;;;;;;4984530;28;20054;-89
2023/08/25 20:44:09;;;;;;;;;;;;;;;;;;;;;
2023/08/25 20:50:04;;;;;;;13.18;10.25;;;;;;;;;;5001309;28;20453;-88
2023/08/25 20:59:27;;;;;;;14.27;12.02;;;;;;;;;;4996762;28;20089;-86
2023/08/25 21:02:05;;;;;;;17.58;15.27;;;;;;;;;;4987155;28;20076;-85
2023/08/25 21:04:39;;;;;;;18.70;14.77;;;;;;;;;;5003191;28;20054;-87
2023/08/25 21:07:12;;;;;;;19.02;16.30;;;;;;;;;;4997105;28;20430;-85
2023/08/25 21:09:40;;;;;;;18.20;14.50;;;;;;;;;;4982035;28;20060;-85
2023/08/25 21:12:15;;;;;;;17.48;13.18;;;;;;;;;;4999038;28;20409;-85
2023/08/25 21:14:54;;;;;;;14.88;11.38;;;;;;;;;;5016597;28;20081;-88
2023/08/25 21:17:22;;;;;;;13.60;10.88;;;;;;;;;;5004107;28;20410;-88
2023/08/25 21:20:03;;;;;;;12.70;10.43;;;;;;;;;;5018046;28;20064;-88
2023/08/25 21:22:47;;;;;;;12.43;11.10;;;;;;;;;;5019643;28;20143;-88
2023/08/25 21:25:27;;;;;;;16.02;12.65;;;;;;;;;;5016769;28;20049;-88
2023/08/25 21:28:05;;;;;;;14.88;11.57;;;;;;;;;;5019047;28;20385;-89
2023/08/25 21:30:36;;;;;;;16.25;13.20;;;;;;;;;;5006074;28;20138;-88
2023/08/25 21:33:18;;;;;;;18.33;14.68;;;;;;;;;;5003402;28;20084;-88
2023/08/25 21:35:48;;;;;;;18.92;14.18;;;;;;;;;;5002876;28;20061;-88
2023/08/25 21:38:16;;;;;;;15.52;12.63;;;;;;;;;;5004222;28;20046;-88
2023/08/25 21:40:45;;;;;;;22.02;15.82;;;;;;;;;;5020112;28;20046;-88
2023/08/25 21:43:20;;;;;;;24.10;20.38;;;;;;;;;;5005348;28;20113;-89
2023/08/25 21:46:01;;;;;;;32.90;22.92;;;;;;;;;;5022008;28;20085;-89
2023/08/25 21:48:36;;;;;;;24.65;20.55;;;;;;;;;;5023871;28;20058;-88
2023/08/25 21:51:09;;;;;;;26.77;22.23;;;;;;;;;;5020263;28;20046;-88
2023/08/25 21:53:38;;;;;;;29.80;24.02;;;;;;;;;;5006266;28;20140;-88
2023/08/25 21:56:06;;;;;;;27.52;24.08;;;;;;;;;;5019092;28;20198;-89
2023/08/25 21:58:39;;;;;;;31.05;24.88;;;;;;;;;;5019405;28;20058;-89
2023/08/25 22:01:17;;;;;;;28.50;23.02;;;;;;;;;;5019188;28;20077;-88
2023/08/25 22:03:47;;;;;;;28.67;23.25;;;;;;;;;;5003813;28;20096;-88
2023/08/25 22:06:15;;;;;;;31.15;25.38;;;;;;;;;;5024250;28;20136;-88
2023/08/25 22:08:44;;;;;;;28.60;23.60;;;;;;;;;;5007244;28;20172;-85
2023/08/25 22:11:31;;;;;;;38.92;30.08;;;;;;;;;;5024437;28;20041;-85
2023/08/25 22:14:02;;;;;;;37.03;26.73;;;;;;;;;;5023624;28;20121;-86
2023/08/25 22:16:35;;;;;;;42.55;28.55;;;;;;;;;;5007596;28;20117;-85
2023/08/25 22:19:07;;;;;;;34.72;27.08;;;;;;;;;;5024689;28;20057;-86
2023/08/25 22:21:39;;;;;;;39.60;30.70;;;;;;;;;;5007196;28;20101;-86
2023/08/25 22:24:07;;;;;;;33.88;27.35;;;;;;;;;;5022615;28;20045;-87
2023/08/25 22:26:42;;;;;;;35.88;27.40;;;;;;;;;;5023130;28;20085;-86
2023/08/25 22:29:39;;;;;;;40.17;31.20;;;;;;;;;;5023492;28;20054;-86
2023/08/25 22:32:15;;;;;;;40.15;30.75;;;;;;;;;;5007704;28;20109;-86
2023/08/25 22:35:04;;;;;;;40.45;29.98;;;;;;;;;;5009711;28;20064;-86
2023/08/25 22:37:31;;;;;;;36.83;27.73;;;;;;;;;;5008998;28;20181;-85
2023/08/25 22:40:03;;;;;;;42.15;31.83;;;;;;;;;;5026185;28;20130;-85
2023/08/25 22:42:44;;;;;;;38.88;30.13;;;;;;;;;;5004996;28;20098;-86
2023/08/25 22:45:13;;;;;;;35.50;26.10;;;;;;;;;;5021213;28;20094;-86
2023/08/25 22:47:47;;;;;;;44.10;30.55;;;;;;;;;;5005699;28;20057;-86
2023/08/25 22:50:15;;;;;;;39.70;29.63;;;;;;;;;;5001061;28;20060;-86
2023/08/25 22:52:43;;;;;;;42.58;31.27;;;;;;;;;;5004485;28;20126;-86
2023/08/25 22:55:12;;;;;;;40.40;28.60;;;;;;;;;;5023358;28;20049;-86
2023/08/25 22:57:40;;;;;;;39.97;28.98;;;;;;;;;;5005456;28;20077;-86
2023/08/25 23:00:10;;;;;;;39.85;30.90;;;;;;;;;;5023865;28;20072;-86
2023/08/25 23:02:43;;;;;;;37.78;28.80;;;;;;;;;;5007511;28;20088;-86
2023/08/25 23:05:11;;;;;;;39.85;29.17;;;;;;;;;;5025160;28;20054;-86
2023/08/25 23:07:41;;;;;;;41.20;31.50;;;;;;;;;;5026170;28;20065;-86
2023/08/25 23:10:35;;;;;;;37.92;28.35;;;;;;;;;;5022250;28;20049;-86
2023/08/25 23:13:05;;;;;;;42.92;31.42;;;;;;;;;;5003892;28;20116;-86
2023/08/25 23:15:36;;;;;;;40.83;30.92;;;;;;;;;;5006948;28;20064;-86
2023/08/25 23:18:05;;;;;;;43.60;29.98;;;;;;;;;;5003076;28;20050;-86
2023/08/25 23:20:37;;;;;;;42.97;28.70;;;;;;;;;;5007739;28;20057;-86
2023/08/25 23:23:05;;;;;;;45.78;32.97;;;;;;;;;;5018260;28;20334;-85
2023/08/25 23:25:38;;;;;;;37.75;28.02;;;;;;;;;;5004844;28;20378;-86
2023/08/25 23:28:09;;;;;;;41.33;30.70;;;;;;;;;;5007974;28;20065;-86
2023/08/25 23:30:53;;;;;;;45.97;33.70;;;;;;;;;;5026185;28;20053;-86
2023/08/25 23:33:30;;;;;;;42.95;32.67;;;;;;;;;;5022897;28;20331;-86
2023/08/25 23:36:16;;;;;;;45.15;32.03;;;;;;;;;;5005985;28;20148;-87
2023/08/25 23:39:15;;;;;;;43.95;31.83;;;;;;;;;;5008453;28;20050;-86
2023/08/25 23:42:01;;;;;;;47.28;31.60;;;;;;;;;;5026437;28;20050;-86
2023/08/25 23:44:36;;;;;;;42.60;30.70;;;;;;;;;;5021894;28;20109;-85
2023/08/25 23:47:13;;;;;;;47.60;31.55;;;;;;;;;;5003799;28;20077;-85
2023/08/25 23:53:28;;;;;;;37.72;26.60;;;;;;;;;;5026414;28;20048;-86
2023/08/25 23:56:01;;;;;;;32.38;24.67;;;;;;;;;;5010759;28;20049;-86
2023/08/25 23:58:31;;;;;;;42.53;28.45;;;;;;;;;;5025890;28;20114;-85
